CDT,Max TemperatureF,Mean TemperatureF,Min TemperatureF,Max Dew PointF,MeanDew PointF,Min DewpointF,Max Humidity, Mean Humidity, Min Humidity, Max Sea Level PressureIn, Mean Sea Level PressureIn, Min Sea Level PressureIn, Max VisibilityMiles, Mean VisibilityMiles, Min VisibilityMiles, Max Wind SpeedMPH, Mean Wind SpeedMPH, Max Gust SpeedMPH,PrecipitationIn, CloudCover, Events, WindDirDegrees
2013-4-1,40,32,23,34,22,11,100,72,30,30.37,30.28,30.16,10,10,8,17,10,22,0.02,2,Snow,350
2013-4-2,53,34,17,25,20,16,99,60,30,30.37,30.32,30.27,10,10,9,9,1,,0.00,1,,110
2013-4-3,56,40,26,26,23,21,84,54,30,30.39,30.32,30.24,10,10,10,13,8,,0.00,0,,147
2013-4-4,64,43,22,37,30,21,98,59,35,30.24,30.14,30.06,10,10,10,15,4,,0.00,0,,342
2013-4-5,68,50,32,38,33,30,93,61,32,30.19,30.04,29.72,10,10,10,21,10,28,0.00,1,,98
2013-4-6,70,60,46,46,41,37,76,53,31,29.81,29.67,29.59,10,10,10,22,14,29,0.00,1,,240
2013-4-7,76,56,39,56,44,38,99,61,29,29.86,29.73,29.62,10,10,10,30,6,38,0.02,5,Rain,135
2013-4-8,68,55,42,62,55,43,100,96,73,29.72,29.67,29.61,10,8,2,23,7,32,0.04,6,Rain,126
2013-4-9,63,50,36,63,45,36,100,98,93,29.96,29.79,29.58,10,8,2,25,12,32,0.42,8,Rain-Thunderstorm,6
2013-4-10,39,36,33,39,37,32,100,99,93,29.98,29.89,29.80,10,8,2,18,10,25,0.66,8,Rain-Snow-Thunderstorm,326
2013-4-11,37,34,31,36,32,29,100,94,82,29.81,29.72,29.67,10,9,2,20,13,24,0.01,8,Rain-Snow,284
2013-4-12,43,37,28,32,29,26,93,77,58,30.04,29.89,29.76,10,10,10,21,15,25,0.00,7,Rain,303
2013-4-13,54,40,26,38,32,24,92,70,51,30.06,29.92,29.68,10,10,10,20,6,23,0.00,3,,135
2013-4-14,70,57,44,52,42,31,87,71,40,29.69,29.53,29.33,10,10,5,24,14,36,0.04,3,Rain-Thunderstorm,119
2013-4-15,46,40,35,31,28,23,82,62,50,30.11,29.91,29.69,10,10,10,16,7,17,0.00,2,,314
2013-4-16,53,44,36,33,29,27,74,58,37,30.26,30.18,30.10,10,10,10,15,8,24,0.00,5,,30
2013-4-17,46,42,38,45,41,33,100,95,60,30.17,29.91,29.62,10,6,2,25,11,38,0.96,8,Rain-Thunderstorm,14
2013-4-18,37,34,32,37,33,28,100,93,77,29.93,29.81,29.70,10,8,2,28,17,37,0.40,7,Rain-Snow-Thunderstorm,324
2013-4-19,48,38,26,27,23,20,81,61,36,30.14,29.96,29.88,10,10,10,22,18,32,0.00,2,,303
2013-4-20,48,34,22,31,23,18,91,59,37,30.30,30.21,30.14,10,10,10,17,5,,0.00,2,Rain,100
2013-4-21,68,56,43,54,42,30,100,62,34,30.16,30.08,29.99,10,9,2,28,14,36,0.54,4,Rain-Thunderstorm,149
2013-4-22,55,44,33,55,46,31,100,99,89,30.21,30.04,29.94,10,6,1,23,6,34,0.90,7,Rain,350
2013-4-23,40,35,28,30,26,21,88,74,55,30.25,30.21,30.17,10,10,10,22,17,29,0.00,5,,341
2013-4-24,60,42,25,41,27,21,87,62,25,30.24,30.17,30.05,10,10,10,29,9,37,0.01,1,Rain,272
2013-4-25,69,48,26,37,33,26,99,59,25,30.38,30.18,30.03,10,10,8,20,6,29,0.00,0,,193
2013-4-26,70,56,44,50,45,38,94,62,47,30.22,30.11,30.05,10,10,10,17,12,24,0.00,1,,161
2013-4-27,66,52,39,51,47,39,100,84,53,30.24,30.11,29.96,10,10,7,9,3,,0.00,3,Rain,141
2013-4-28,81,60,40,55,49,40,100,69,31,29.98,29.84,29.71,10,9,6,15,8,24,0.00,0,,148
2013-4-29,84,69,54,57,55,49,100,64,31,29.75,29.63,29.52,10,9,2,10,5,,0.00,2,Rain,135
2013-4-30,76,68,60,57,50,45,61,50,40,29.88,29.70,29.50,10,10,10,16,12,23,0.00,3,Rain-Thunderstorm,347